Time;durP1;ratioP1;P1;durP2;ratioP2;P2;SDS_P1;SDS_P2;PMS_P1;PMS_P2;Temp;Humidity;BMP_temperature;BMP_pressure;BME280_temperature;BME280_humidity;BME280_pressure;Samples;Min_cycle;Max_cycle;Signal;HPM_P1;HPM_P2
2022/12/14 00:00:10;;;;;;;142.07;89.18;;;;;;;-0.50;100.00;94357.63;5065288;28;20028;-66
2022/12/14 00:02:35;;;;;;;118.28;80.90;;;;;;;-0.49;100.00;94357.50;5065780;28;20016;-66
2022/12/14 00:05:01;;;;;;;116.45;79.63;;;;;;;-0.37;100.00;94357.59;5064669;28;20021;-66
2022/12/14 00:07:27;;;;;;;112.97;70.30;;;;;;;-0.42;100.00;94350.16;5067335;28;20059;-66
2022/12/14 00:13:14;;;;;;;110.88;75.22;;;;;;;-0.54;100.00;94338.09;5063490;28;20042;-62
2022/12/14 00:15:40;;;;;;;104.55;70.70;;;;;;;-0.59;100.00;94334.06;5066790;28;20095;-61
2022/12/14 00:18:05;;;;;;;99.05;69.25;;;;;;;-0.57;100.00;94333.97;5064276;28;20024;-62
2022/12/14 00:20:32;;;;;;;87.55;63.25;;;;;;;-0.58;100.00;94340.06;5058120;28;20112;-62
2022/12/14 00:22:58;;;;;;;86.80;62.03;;;;;;;-0.55;100.00;94333.84;5069877;28;20104;-61
2022/12/14 00:25:24;;;;;;;80.68;57.58;;;;;;;-0.61;100.00;94340.28;5069345;28;20091;-62
2022/12/14 00:27:50;;;;;;;82.97;59.15;;;;;;;-0.66;100.00;94340.59;5069733;28;20103;-62
2022/12/14 00:30:18;;;;;;;88.20;61.72;;;;;;;-0.66;100.00;94338.00;5069397;28;20142;-64
2022/12/14 00:32:44;;;;;;;87.70;65.38;;;;;;;-0.64;100.00;94338.72;5068412;28;20032;-67
2022/12/14 00:35:10;;;;;;;155.13;101.45;;;;;;;-0.63;100.00;94329.22;5067014;28;20114;-67
2022/12/14 00:37:37;;;;;;;66.93;50.53;;;;;;;-0.59;100.00;94330.66;5061655;28;20025;-67
2022/12/14 00:40:04;;;;;;;58.13;43.45;;;;;;;-0.45;100.00;94338.25;5065241;28;20098;-67
2022/12/14 00:42:29;;;;;;;40.78;33.80;;;;;;;-0.35;100.00;94337.63;5061452;28;20036;-67
2022/12/14 00:44:54;;;;;;;54.17;42.92;;;;;;;-0.40;100.00;94331.94;5063877;28;20025;-67
2022/12/14 00:47:20;;;;;;;80.07;54.72;;;;;;;-0.37;100.00;94334.31;5061358;28;20025;-67
2022/12/14 00:49:45;;;;;;;73.88;52.72;;;;;;;-0.42;100.00;94331.22;5064833;28;20021;-67
2022/12/14 00:52:10;;;;;;;70.55;51.53;;;;;;;-0.45;100.00;94332.25;5065215;28;20024;-62
2022/12/14 00:54:36;;;;;;;59.38;43.58;;;;;;;-0.38;100.00;94343.00;5063164;28;20502;-62
2022/12/14 00:57:01;;;;;;;51.17;39.85;;;;;;;-0.36;100.00;94343.72;5061087;28;20032;-62
2022/12/14 00:59:26;;;;;;;67.07;49.05;;;;;;;-0.37;100.00;94342.88;5066354;28;20039;-62
2022/12/14 01:01:52;;;;;;;65.45;50.00;;;;;;;-0.37;100.00;94336.91;5065937;28;20032;-62
2022/12/14 01:04:18;;;;;;;66.07;50.45;;;;;;;-0.28;100.00;94335.44;5054257;28;20047;-62
2022/12/14 01:06:48;;;;;;;56.63;45.83;;;;;;;-0.30;100.00;94330.34;5062878;28;20038;-59
2022/12/14 01:09:15;;;;;;;55.38;43.63;;;;;;;-0.31;100.00;94332.13;5056373;28;20078;-58
2022/12/14 01:11:40;;;;;;;48.58;41.75;;;;;;;-0.33;100.00;94330.56;5061723;28;20410;-56
2022/12/14 01:14:06;;;;;;;62.35;44.83;;;;;;;-0.37;100.00;94331.72;5063527;28;20031;-55
2022/12/14 01:16:32;;;;;;;55.58;43.50;;;;;;;-0.39;100.00;94331.81;5062218;28;20051;-56
2022/12/14 01:18:58;;;;;;;63.40;47.72;;;;;;;-0.40;100.00;94334.53;5065907;28;20058;-54
2022/12/14 01:21:24;;;;;;;57.15;43.33;;;;;;;-0.44;100.00;94326.16;5056193;28;20028;-55
2022/12/14 01:23:52;;;;;;;55.00;43.47;;;;;;;-0.53;100.00;94329.41;5065093;28;20024;-55
2022/12/14 01:26:22;;;;;;;51.08;41.42;;;;;;;-0.57;100.00;94326.19;5067924;28;20016;-62
2022/12/14 01:28:55;;;;;;;53.60;42.28;;;;;;;-0.56;100.00;94324.44;5067826;28;20024;-65
2022/12/14 01:31:28;;;;;;;62.17;45.33;;;;;;;-0.56;100.00;94322.69;5059722;28;20498;-63
2022/12/14 01:33:54;;;;;;;56.75;44.20;;;;;;;-0.60;100.00;94324.66;5059584;28;20051;-63
2022/12/14 01:36:22;;;;;;;40.65;33.92;;;;;;;-0.54;100.00;94325.16;5058212;28;20025;-64
2022/12/14 01:38:56;;;;;;;42.00;33.70;;;;;;;-0.50;100.00;94330.00;5065097;28;20021;-63
2022/12/14 01:41:29;;;;;;;40.92;33.22;;;;;;;-0.50;100.00;94321.44;5064219;28;20487;-63
2022/12/14 01:43:58;;;;;;;43.97;35.92;;;;;;;-0.59;100.00;94322.91;5066500;28;20056;-63
2022/12/14 01:46:31;;;;;;;44.83;36.15;;;;;;;-0.62;100.00;94323.13;5064144;28;20052;-62
2022/12/14 01:49:06;;;;;;;43.47;32.70;;;;;;;-0.64;100.00;94325.78;5068329;28;20027;-65
2022/12/14 01:51:33;;;;;;;35.03;28.55;;;;;;;-0.65;100.00;94318.97;5061706;28;20488;-66
2022/12/14 01:54:01;;;;;;;41.28;34.22;;;;;;;-0.60;100.00;94316.06;5064430;28;20074;-66
2022/12/14 01:56:29;;;;;;;111.80;97.90;;;;;;;-0.50;100.00;94311.91;5055313;28;20029;-66
2022/12/14 01:59:00;;;;;;;65.03;57.97;;;;;;;-0.47;100.00;94313.44;5064310;28;20100;-66
2022/12/14 02:01:26;;;;;;;41.17;36.67;;;;;;;-0.48;100.00;94316.97;5068120;28;20021;-66
2022/12/14 02:03:52;;;;;;;40.05;34.97;;;;;;;-0.49;100.00;94304.97;5064330;28;20021;-55
2022/12/14 02:06:27;;;;;;;46.95;40.92;;;;;;;-0.47;100.00;94300.53;5066579;28;20031;-58
2022/12/14 02:08:55;;;;;;;37.53;31.67;;;;;;;-0.44;100.00;94301.13;5065152;28;20105;-56
2022/12/14 02:11:45;;;;;;;28.77;25.27;;;;;;;-0.43;100.00;94299.38;5068394;28;20028;-54
2022/12/14 02:14:11;;;;;;;23.45;21.02;;;;;;;-0.41;100.00;94297.50;5066363;28;20035;-53
2022/12/14 02:16:37;;;;;;;31.25;27.35;;;;;;;-0.18;100.00;94303.63;5060954;28;20025;-56
2022/12/14 02:19:02;;;;;;;32.03;26.48;;;;;;;-0.14;100.00;94306.78;5066058;28;20535;-56
2022/12/14 02:21:43;;;;;;;38.38;33.13;;;;;;;-0.16;100.00;94306.91;5063490;28;20028;-55
2022/12/14 02:24:26;;;;;;;107.97;68.53;;;;;;;-0.18;100.00;94301.03;5054563;28;20029;-62
2022/12/14 02:27:30;;;;;;;92.90;58.97;;;;;;;-0.16;100.00;94308.66;5067339;28;20078;-63
2022/12/14 02:30:01;;;;;;;54.47;42.92;;;;;;;-0.04;100.00;94292.25;5052033;28;20079;-63
2022/12/14 02:33:01;;;;;;;56.53;43.83;;;;;;;-0.07;100.00;94291.66;5067446;28;20032;-63
2022/12/14 02:35:54;;;;;;;48.05;37.95;;;;;;;0.30;100.00;94282.94;5062902;28;20498;-64
2022/12/14 02:38:29;;;;;;;30.08;22.77;;;;;;;0.48;100.00;94286.75;5065987;28;20032;-63
2022/12/14 02:41:18;;;;;;;28.83;24.25;;;;;;;0.28;100.00;94289.06;5060875;28;20039;-63
2022/12/14 02:44:08;;;;;;;40.03;28.85;;;;;;;0.10;100.00;94280.06;5060651;28;20613;-58
2022/12/14 02:46:42;;;;;;;30.85;27.50;;;;;;;0.02;100.00;94284.97;5061029;28;20032;-66
2022/12/14 02:49:46;;;;;;;30.58;25.05;;;;;;;-0.03;100.00;94286.16;5069442;28;20077;-66
2022/12/14 02:52:27;;;;;;;33.38;24.45;;;;;;;-0.04;100.00;94276.75;5061191;28;20519;-66
2022/12/14 02:55:00;;;;;;;36.22;26.83;;;;;;;-0.01;100.00;94286.03;5066128;28;20028;-66
2022/12/14 02:57:35;;;;;;;52.95;32.65;;;;;;;-0.01;100.00;94280.84;5067968;28;20436;-66
2022/12/14 03:00:02;;;;;;;;;;;;;;;-0.02;100.00;94281.78;5063487;28;20035;-66
2022/12/14 03:02:29;;;;;;;34.45;24.15;;;;;;;-0.09;100.00;94268.50;5071329;28;19919;-63
2022/12/14 03:04:54;;;;;;;32.55;20.55;;;;;;;-0.09;100.00;94265.91;5071397;28;20561;-59
2022/12/14 03:07:31;;;;;;;22.65;18.60;;;;;;;-0.09;100.00;94258.16;5062321;28;20112;-59
2022/12/14 03:10:02;;;;;;;24.77;17.88;;;;;;;-0.08;100.00;94256.38;5069090;28;20029;-59
2022/12/14 03:12:28;;;;;;;21.67;17.15;;;;;;;-0.09;100.00;94252.13;5060946;28;20403;-59
2022/12/14 03:14:58;;;;;;;20.30;16.55;;;;;;;-0.13;100.00;94241.16;5067042;28;20029;-58
2022/12/14 03:17:28;;;;;;;16.55;14.57;;;;;;;-0.15;100.00;94251.66;5069891;28;20402;-58
2022/12/14 03:20:00;;;;;;;15.90;14.30;;;;;;;-0.16;100.00;94241.41;5067795;28;20023;-59
2022/12/14 03:22:32;;;;;;;16.63;13.98;;;;;;;-0.16;100.00;94252.59;5070084;28;20061;-68
2022/12/14 03:25:05;;;;;;;21.45;14.30;;;;;;;-0.12;100.00;94253.16;5063434;28;20390;-62
2022/12/14 03:27:34;;;;;;;18.02;13.05;;;;;;;-0.10;100.00;94248.72;5071056;28;20032;-63
2022/12/14 03:30:04;;;;;;;19.00;15.43;;;;;;;-0.01;100.00;94244.63;5063550;28;20016;-62
2022/12/14 03:32:33;;;;;;;21.73;16.35;;;;;;;-0.08;100.00;94244.28;5063249;28;20028;-62
2022/12/14 03:35:04;;;;;;;56.08;33.08;;;;;;;-0.09;100.00;94246.94;5079198;28;20136;-63
2022/12/14 03:37:45;;;;;;;47.97;30.27;;;;;;;-0.09;100.00;94246.94;5065894;28;20119;-63
2022/12/14 03:40:13;;;;;;;42.50;25.73;;;;;;;-0.09;100.00;94252.13;5069976;28;20540;-55
2022/12/14 03:42:44;;;;;;;41.88;30.35;;;;;;;-0.11;100.00;94246.25;5070684;28;20548;-60
2022/12/14 03:45:20;;;;;;;34.97;24.20;;;;;;;-0.09;100.00;94241.78;5062696;28;20108;-62
2022/12/14 03:47:48;;;;;;;66.00;38.72;;;;;;;-0.08;100.00;94228.75;5066994;28;20035;-62
2022/12/14 03:50:19;;;;;;;47.35;32.45;;;;;;;-0.08;100.00;94225.31;5061177;28;20033;-62
2022/12/14 03:53:12;;;;;;;38.58;27.50;;;;;;;-0.11;100.00;94223.81;5063301;28;20024;-62
2022/12/14 03:56:20;;;;;;;54.40;37.35;;;;;;;-0.09;100.00;94227.09;5067770;28;20555;-62
2022/12/14 03:59:03;;;;;;;30.95;24.40;;;;;;;-0.07;100.00;94227.81;5043614;28;20025;-63
2022/12/14 04:01:31;;;;;;;28.52;25.42;;;;;;;-0.05;100.00;94233.69;5047254;28;20625;-67
2022/12/14 04:04:04;;;;;;;30.73;24.38;;;;;;;-0.05;100.00;94233.69;5062256;28;20025;-62
2022/12/14 04:06:54;;;;;;;25.20;22.40;;;;;;;0.09;100.00;94234.41;5067397;28;20307;-61
2022/12/14 04:09:22;;;;;;;24.00;21.38;;;;;;;0.23;100.00;94229.03;5066333;28;20078;-61
2022/12/14 04:20:34;;;;;;;25.58;21.23;;;;;;;-0.08;100.00;94223.56;5068887;28;20035;-58
2022/12/14 04:23:11;;;;;;;22.85;20.10;;;;;;;-0.12;100.00;94226.47;5067984;28;20028;-59
2022/12/14 04:31:20;;;;;;;23.00;20.02;;;;;;;-0.07;100.00;94216.63;5050750;28;20410;-60
2022/12/14 04:33:52;;;;;;;29.80;26.75;;;;;;;-0.05;100.00;94212.16;5069886;28;20040;-59
2022/12/14 04:36:44;;;;;;;29.92;26.85;;;;;;;-0.07;100.00;94206.25;5066501;28;20033;-59
2022/12/14 04:39:27;;;;;;;25.55;22.95;;;;;;;-0.13;100.00;94212.72;5054597;28;20036;-66
2022/12/14 04:41:57;;;;;;;24.23;22.02;;;;;;;-0.15;100.00;94207.66;5057045;28;20380;-62
2022/12/14 04:44:49;;;;;;;24.20;21.67;;;;;;;-0.09;100.00;94224.50;5054923;28;20047;-62
2022/12/14 04:47:17;;;;;;;24.38;21.88;;;;;;;-0.03;100.00;94221.47;5058148;28;20107;-62
2022/12/14 04:49:55;;;;;;;22.55;18.05;;;;;;;0.31;100.00;94225.03;5052710;28;20086;-62
2022/12/14 04:52:28;;;;;;;17.25;14.48;;;;;;;0.64;100.00;94224.25;5059836;28;20063;-62
2022/12/14 04:55:00;;;;;;;24.38;17.02;;;;;;;0.47;100.00;94229.91;5061470;28;20390;-62
2022/12/14 04:57:51;;;;;;;23.92;16.33;;;;;;;0.30;100.00;94224.22;5060070;28;20024;-55
2022/12/14 05:00:17;;;;;;;20.60;17.60;;;;;;;0.16;100.00;94220.09;5060537;28;20021;-58
2022/12/14 05:02:51;;;;;;;19.63;15.45;;;;;;;0.11;100.00;94215.25;5063151;28;20055;-62
2022/12/14 05:05:24;;;;;;;17.42;13.82;;;;;;;0.07;100.00;94216.44;5049057;28;20021;-62
2022/12/14 05:08:10;;;;;;;17.00;15.27;;;;;;;0.05;100.00;94212.28;5056559;28;20448;-62
2022/12/14 05:10:40;;;;;;;17.40;15.48;;;;;;;0.04;100.00;94202.88;5058222;28;20032;-63
2022/12/14 05:13:33;;;;;;;21.80;19.48;;;;;;;0.04;100.00;94215.81;5067511;28;20469;-62
2022/12/14 05:15:59;;;;;;;18.75;16.85;;;;;;;0.02;100.00;94212.53;5057837;28;20024;-62
2022/12/14 05:18:25;;;;;;;18.55;16.50;;;;;;;0.02;100.00;94217.69;5051374;28;20384;-61
2022/12/14 05:20:50;;;;;;;17.08;15.38;;;;;;;0.02;100.00;94222.88;5063992;28;20051;-59
2022/12/14 05:23:16;;;;;;;53.88;36.40;;;;;;;-0.02;100.00;94225.69;5056346;28;20028;-60
2022/12/14 05:25:42;;;;;;;49.92;32.40;;;;;;;0.02;100.00;94226.31;5066728;28;20086;-60
2022/12/14 05:28:09;;;;;;;34.15;24.10;;;;;;;0.10;100.00;94230.88;5054849;28;20022;-59
2022/12/14 05:30:35;;;;;;;22.73;19.42;;;;;;;0.08;100.00;94231.00;5050255;28;20029;-59
2022/12/14 05:33:00;;;;;;;19.52;17.48;;;;;;;0.07;100.00;94228.53;5050125;28;20032;-60
2022/12/14 05:35:25;;;;;;;20.42;18.25;;;;;;;0.17;100.00;94236.44;5049548;28;20095;-62
2022/12/14 05:37:51;;;;;;;26.58;23.58;;;;;;;0.13;100.00;94235.84;5050179;28;20417;-62
2022/12/14 05:40:16;;;;;;;39.38;28.83;;;;;;;0.18;100.00;94228.56;5049814;28;20027;-59
2022/12/14 05:42:42;;;;;;;40.70;33.70;;;;;;;0.28;100.00;94234.69;5050497;28;20040;-59
2022/12/14 05:45:10;;;;;;;52.20;38.75;;;;;;;0.19;100.00;94242.31;5050570;28;20021;-59
2022/12/14 05:47:35;;;;;;;37.45;30.65;;;;;;;0.10;100.00;94242.06;5051198;28;20036;-59
2022/12/14 05:50:00;;;;;;;26.90;24.05;;;;;;;0.08;100.00;94238.78;5050078;28;20016;-60
2022/12/14 05:52:26;;;;;;;28.85;24.65;;;;;;;0.16;100.00;94245.97;5063220;28;20556;-59
2022/12/14 05:54:52;;;;;;;24.10;21.50;;;;;;;0.19;100.00;94244.91;5050742;28;20441;-63
2022/12/14 05:57:18;;;;;;;27.73;25.02;;;;;;;0.17;100.00;94255.41;5052705;28;20021;-67
2022/12/14 05:59:43;;;;;;;33.22;29.83;;;;;;;0.11;100.00;94245.47;5058280;28;20078;-54
2022/12/14 06:02:09;;;;;;;23.65;21.23;;;;;;;0.09;100.00;94242.19;5063912;28;20086;-55
2022/12/14 06:04:34;;;;;;;23.55;18.92;;;;;;;0.09;100.00;94230.06;5060900;28;20146;-55
2022/12/14 06:06:59;;;;;;;20.50;18.35;;;;;;;0.11;100.00;94232.53;5058589;28;20025;-54
2022/12/14 06:09:25;;;;;;;58.70;37.72;;;;;;;0.06;100.00;94227.72;5063195;28;20055;-56
2022/12/14 06:11:50;;;;;;;97.85;51.08;;;;;;;0.05;100.00;94225.22;5068340;28;20020;-56
2022/12/14 06:14:16;;;;;;;74.55;46.85;;;;;;;0.06;100.00;94224.28;5068318;28;20033;-63
2022/12/14 06:16:44;;;;;;;74.28;43.30;;;;;;;0.10;100.00;94223.13;5070382;28;20493;-61
2022/12/14 06:19:12;;;;;;;69.28;43.50;;;;;;;0.08;100.00;94225.00;5070061;28;20253;-61
2022/12/14 06:21:40;;;;;;;56.38;38.78;;;;;;;0.07;100.00;94220.75;5063161;28;20025;-61
2022/12/14 06:24:06;;;;;;;43.60;31.27;;;;;;;0.20;100.00;94208.56;5071981;28;20016;-61
2022/12/14 06:26:35;;;;;;;41.80;35.28;;;;;;;0.21;100.00;94210.22;5071078;28;20016;-61
2022/12/14 06:29:02;;;;;;;47.58;42.10;;;;;;;0.23;100.00;94200.56;5061249;28;20145;-61
2022/12/14 06:31:29;;;;;;;39.50;35.13;;;;;;;0.24;100.00;94209.97;5058514;28;20402;-61
2022/12/14 06:33:58;;;;;;;35.65;31.63;;;;;;;0.23;100.00;94216.09;5056266;28;20082;-62
2022/12/14 06:36:25;;;;;;;35.20;31.40;;;;;;;0.16;100.00;94212.34;5053023;28;20028;-59
2022/12/14 06:38:52;;;;;;;41.80;36.50;;;;;;;0.17;100.00;94221.75;5052675;28;20082;-58
2022/12/14 06:41:18;;;;;;;43.15;37.00;;;;;;;0.10;100.00;94231.72;5058090;28;20036;-57
2022/12/14 06:43:44;;;;;;;32.40;27.90;;;;;;;0.17;100.00;94226.91;5061693;28;20417;-58
2022/12/14 06:46:12;;;;;;;29.02;25.83;;;;;;;0.21;100.00;94236.09;5065866;28;20031;-58
2022/12/14 06:48:37;;;;;;;40.63;33.05;;;;;;;0.26;100.00;94246.94;5059478;28;20028;-56
2022/12/14 06:51:04;;;;;;;70.47;49.75;;;;;;;0.30;100.00;94244.09;5068969;28;20039;-58
2022/12/14 06:53:30;;;;;;;53.40;44.45;;;;;;;0.40;100.00;94245.88;5070401;28;20035;-61
2022/12/14 06:56:10;;;;;;;55.10;48.70;;;;;;;0.46;100.00;94251.56;5069849;28;20409;-61
2022/12/14 06:58:36;;;;;;;48.47;38.00;;;;;;;0.39;100.00;94240.84;5070007;28;20032;-66
2022/12/14 07:01:07;;;;;;;41.95;35.67;;;;;;;0.35;100.00;94248.00;5067619;28;20037;-66
2022/12/14 07:03:33;;;;;;;45.13;38.88;;;;;;;0.36;100.00;94252.25;5066812;28;20032;-66
2022/12/14 07:06:00;;;;;;;53.35;44.55;;;;;;;0.33;100.00;94252.47;5068439;28;20028;-68
2022/12/14 07:08:27;;;;;;;58.30;45.88;;;;;;;0.37;100.00;94264.25;5066916;28;20498;-66
2022/12/14 07:10:53;;;;;;;60.13;45.35;;;;;;;0.37;100.00;94263.44;5068869;28;20375;-66
2022/12/14 07:13:20;;;;;;;53.67;45.42;;;;;;;0.33;100.00;94264.59;5067758;28;20031;-61
2022/12/14 07:15:51;;;;;;;39.20;34.95;;;;;;;0.30;100.00;94260.47;5069017;28;20553;-66
2022/12/14 07:18:16;;;;;;;27.25;24.40;;;;;;;0.30;100.00;94267.41;5070776;28;20012;-61
2022/12/14 07:20:43;;;;;;;22.08;19.80;;;;;;;0.39;100.00;94277.09;5063759;28;20025;-61
2022/12/14 07:23:09;;;;;;;24.75;22.30;;;;;;;0.46;100.00;94285.25;5064204;28;20308;-61
2022/12/14 07:25:34;;;;;;;48.10;40.08;;;;;;;0.53;100.00;94286.41;5062845;28;20514;-61
2022/12/14 07:27:59;;;;;;;43.03;32.47;;;;;;;0.61;100.00;94296.19;5067362;28;20041;-61
2022/12/14 07:30:25;;;;;;;38.10;34.13;;;;;;;0.66;100.00;94291.50;5066010;28;20099;-62
2022/12/14 07:32:50;;;;;;;39.40;32.88;;;;;;;0.60;100.00;94291.97;5067060;28;20058;-61
2022/12/14 07:35:16;;;;;;;30.70;27.08;;;;;;;0.60;100.00;94290.19;5059449;28;20376;-68
2022/12/14 07:37:41;;;;;;;28.42;25.55;;;;;;;0.62;100.00;94282.31;5065512;28;20032;-68
2022/12/14 07:40:07;;;;;;;99.45;50.50;;;;;;;0.65;100.00;94276.91;5064375;28;20036;-68
2022/12/14 07:42:33;;;;;;;39.55;28.35;;;;;;;0.73;100.00;94273.72;5064344;28;20024;-68
2022/12/14 07:45:00;;;;;;;45.33;31.15;;;;;;;0.77;100.00;94296.66;5060212;28;20051;-69
2022/12/14 07:47:29;;;;;;;58.13;36.85;;;;;;;0.77;100.00;94288.91;5062855;28;20078;-68
2022/12/14 07:49:54;;;;;;;47.90;33.72;;;;;;;0.76;100.00;94295.03;5061379;28;20039;-68
2022/12/14 07:52:19;;;;;;;69.07;42.75;;;;;;;0.81;100.00;94281.72;5062234;28;20028;-62
2022/12/14 07:54:45;;;;;;;54.78;38.17;;;;;;;0.76;100.00;94289.84;5062401;28;20483;-66
2022/12/14 07:57:10;;;;;;;47.33;31.88;;;;;;;0.74;100.00;94289.13;5060634;28;20119;-66
2022/12/14 07:59:35;;;;;;;36.35;29.15;;;;;;;0.77;100.00;94281.13;5062273;28;20083;-67
2022/12/14 08:02:01;;;;;;;34.53;28.05;;;;;;;0.87;100.00;94293.41;5067764;28;20401;-66
2022/12/14 08:04:26;;;;;;;36.35;29.23;;;;;;;1.02;100.00;94291.41;5054596;28;20025;-66
2022/12/14 08:06:52;;;;;;;34.25;26.30;;;;;;;1.14;100.00;94296.44;5058482;28;20402;-66
2022/12/14 08:09:18;;;;;;;51.47;37.22;;;;;;;1.14;100.00;94295.66;5058568;28;20223;-66
2022/12/14 08:11:44;;;;;;;47.33;37.13;;;;;;;1.06;100.00;94283.28;5064704;28;20262;-66
2022/12/14 08:14:13;;;;;;;42.58;32.50;;;;;;;1.08;100.00;94278.78;5059935;28;20183;-60
2022/12/14 08:16:38;;;;;;;36.78;30.88;;;;;;;1.06;100.00;94270.31;5069250;28;20032;-59
2022/12/14 08:19:04;;;;;;;65.03;49.45;;;;;;;1.15;100.00;94276.56;5059334;28;20017;-59
2022/12/14 08:21:29;;;;;;;58.50;42.75;;;;;;;1.26;100.00;94280.91;5065443;28;20036;-60
2022/12/14 08:23:56;;;;;;;44.92;36.08;;;;;;;1.28;100.00;94286.78;5059361;28;20024;-59
2022/12/14 08:26:23;;;;;;;44.50;36.53;;;;;;;1.26;100.00;94284.31;5070621;28;20401;-60
2022/12/14 08:28:49;;;;;;;43.53;37.78;;;;;;;1.28;100.00;94281.59;5057597;28;20020;-59
2022/12/14 08:31:19;;;;;;;54.92;38.10;;;;;;;1.24;100.00;94283.59;5070083;28;20504;-65
2022/12/14 08:33:45;;;;;;;61.72;39.40;;;;;;;1.24;100.00;94280.19;5056293;28;20055;-57
2022/12/14 08:36:23;;;;;;;55.63;35.97;;;;;;;1.23;100.00;94274.19;5068222;28;20041;-57
2022/12/14 08:38:53;;;;;;;104.57;51.80;;;;;;;1.32;100.00;94288.19;5057623;28;20015;-56
2022/12/14 08:41:18;;;;;;;69.22;41.28;;;;;;;1.39;100.00;94294.53;5066858;28;20021;-55
2022/12/14 08:43:49;;;;;;;64.85;43.67;;;;;;;1.44;100.00;94296.78;5068612;28;20525;-56
2022/12/14 08:46:14;;;;;;;51.03;34.50;;;;;;;1.46;100.00;94307.84;5066773;28;20151;-57
2022/12/14 08:48:40;;;;;;;50.10;35.80;;;;;;;1.45;100.00;94311.41;5068572;28;20439;-59
2022/12/14 08:51:08;;;;;;;49.28;41.03;;;;;;;1.43;100.00;94315.88;5067040;28;21360;-60
2022/12/14 08:53:34;;;;;;;50.38;39.33;;;;;;;1.35;100.00;94316.47;5068473;28;20092;-60
2022/12/14 08:56:11;;;;;;;51.20;41.15;;;;;;;1.31;100.00;94325.44;5054756;28;20086;-59
2022/12/14 08:58:38;;;;;;;40.42;34.80;;;;;;;1.33;100.00;94326.16;5067552;28;20024;-59
2022/12/14 09:01:06;;;;;;;46.60;40.30;;;;;;;1.32;100.00;94316.72;5064510;28;20027;-59
2022/12/14 09:03:31;;;;;;;52.65;41.35;;;;;;;1.38;100.00;94325.81;5067226;28;20035;-59
2022/12/14 09:06:04;;;;;;;42.70;35.97;;;;;;;1.43;100.00;94324.47;5062109;28;20108;-60
2022/12/14 09:08:31;;;;;;;53.28;41.65;;;;;;;1.51;100.00;94330.84;5061841;28;20047;-68
2022/12/14 09:10:56;;;;;;;67.30;47.47;;;;;;;1.55;100.00;94334.84;5069256;28;20025;-58
2022/12/14 09:13:21;;;;;;;81.30;52.63;;;;;;;1.57;100.00;94327.75;5069699;28;20027;-64
2022/12/14 09:15:56;;;;;;;117.30;74.47;;;;;;;1.62;100.00;94317.84;5068762;28;20056;-64
2022/12/14 09:18:21;;;;;;;115.22;76.82;;;;;;;1.62;100.00;94323.03;5069720;28;20025;-64
2022/12/14 09:20:47;;;;;;;67.28;51.90;;;;;;;1.51;100.00;94333.44;5068620;28;20136;-64
2022/12/14 09:23:12;;;;;;;53.97;43.75;;;;;;;1.69;100.00;94350.16;5069187;28;20056;-64
2022/12/14 09:25:38;;;;;;;60.08;48.80;;;;;;;1.64;100.00;94360.06;5068691;28;20020;-65
2022/12/14 09:28:03;;;;;;;68.72;52.03;;;;;;;1.54;100.00;94378.13;5055571;28;20025;-65
2022/12/14 09:30:29;;;;;;;64.13;54.55;;;;;;;1.54;100.00;94385.09;5050296;28;20471;-61
2022/12/14 09:32:54;;;;;;;58.95;50.47;;;;;;;1.60;100.00;94397.56;5050593;28;20513;-67
2022/12/14 09:35:19;;;;;;;65.53;53.65;;;;;;;1.57;100.00;94403.00;5050248;28;20056;-67
2022/12/14 09:37:45;;;;;;;68.57;53.67;;;;;;;1.57;100.00;94414.22;5051061;28;20037;-68
2022/12/14 09:40:12;;;;;;;52.67;42.22;;;;;;;1.55;100.00;94410.91;5049544;28;20036;-67
2022/12/14 09:42:47;;;;;;;47.65;38.67;;;;;;;1.52;100.00;94421.50;5049798;28;20079;-68
2022/12/14 09:45:19;;;;;;;36.83;32.95;;;;;;;1.66;100.00;94415.28;5101857;28;20060;-68
2022/12/14 09:48:13;;;;;;;32.72;29.27;;;;;;;1.79;100.00;94422.94;5068824;28;20024;-67
2022/12/14 09:50:39;;;;;;;30.42;26.08;;;;;;;1.80;100.00;94426.34;5069518;28;20037;-69
2022/12/14 09:53:10;;;;;;;47.78;42.42;;;;;;;1.82;100.00;94432.22;5053665;28;20484;-69
2022/12/14 09:55:44;;;;;;;44.35;37.13;;;;;;;1.89;100.00;94438.63;5066353;28;20498;-69
2022/12/14 09:58:24;;;;;;;44.42;35.17;;;;;;;1.88;100.00;94434.38;5053934;28;20167;-69
2022/12/14 10:01:11;;;;;;;46.95;38.58;;;;;;;1.84;100.00;94433.78;5053942;28;20223;-69
2022/12/14 10:03:49;;;;;;;93.97;69.20;;;;;;;1.81;100.00;94428.84;5054018;28;20406;-69
2022/12/14 10:06:36;;;;;;;147.90;94.88;;;;;;;1.82;100.00;94430.47;5053892;28;20035;-62
2022/12/14 10:09:10;;;;;;;124.35;86.85;;;;;;;1.84;100.00;94409.56;5065011;28;20029;-63
2022/12/14 10:11:58;;;;;;;108.28;72.40;;;;;;;1.95;100.00;94414.78;5053576;28;20033;-60
2022/12/14 10:14:42;;;;;;;55.10;44.20;;;;;;;2.03;100.00;94408.13;5045461;28;20037;-59
2022/12/14 10:17:21;;;;;;;205.30;105.40;;;;;;;2.06;100.00;94406.13;5053485;28;20031;-60
2022/12/14 10:20:02;;;;;;;89.53;63.10;;;;;;;2.00;100.00;94394.47;5053277;28;20040;-60
2022/12/14 10:22:36;;;;;;;77.57;61.30;;;;;;;1.98;100.00;94391.16;5053665;28;20021;-60
2022/12/14 10:25:10;;;;;;;89.03;66.30;;;;;;;1.96;100.00;94387.84;5055991;28;20032;-66
2022/12/14 10:27:38;;;;;;;102.75;65.55;;;;;;;1.96;100.00;94382.66;5062609;28;20557;-58
2022/12/14 10:30:16;;;;;;;69.20;54.35;;;;;;;1.97;100.00;94379.13;5068190;28;20024;-69
2022/12/14 10:32:51;;;;;;;65.18;50.60;;;;;;;1.97;100.00;94376.53;5072494;28;20066;-70
2022/12/14 10:35:28;;;;;;;55.47;45.20;;;;;;;2.09;100.00;94372.13;5102958;28;20461;-70
2022/12/14 10:38:24;;;;;;;72.13;57.67;;;;;;;2.16;100.00;94369.88;5071313;28;20039;-70
2022/12/14 10:40:53;;;;;;;59.10;47.92;;;;;;;2.24;100.00;94359.69;5064267;28;20513;-69
2022/12/14 10:43:30;;;;;;;70.32;61.72;;;;;;;2.35;100.00;94360.59;5071411;28;20033;-70
2022/12/14 10:46:07;;;;;;;62.38;55.75;;;;;;;2.44;100.00;94352.06;5058412;28;20478;-61
2022/12/14 10:48:54;;;;;;;61.83;55.20;;;;;;;2.64;100.00;94344.41;5053206;28;20032;-70
2022/12/14 10:51:50;;;;;;;90.43;70.50;;;;;;;2.86;100.00;94346.03;5053350;28;20031;-69
2022/12/14 10:54:25;;;;;;;59.45;52.45;;;;;;;3.15;100.00;94350.59;5053417;28;20027;-70
2022/12/14 10:56:50;;;;;;;71.50;59.95;;;;;;;3.12;100.00;94349.06;5052738;28;20414;-69
2022/12/14 10:59:24;;;;;;;56.55;47.75;;;;;;;3.08;100.00;94350.28;5054384;28;20032;-70
2022/12/14 11:02:04;;;;;;;56.05;48.05;;;;;;;3.15;100.00;94356.59;5052528;28;20039;-69
2022/12/14 11:04:46;;;;;;;51.47;46.17;;;;;;;3.07;100.00;94350.38;5053260;28;20017;-69
2022/12/14 11:07:14;;;;;;;48.20;43.22;;;;;;;3.07;100.00;94351.22;5067656;28;20038;-63
2022/12/14 11:09:41;;;;;;;58.65;52.28;;;;;;;3.05;100.00;94355.72;5066199;28;20035;-62
2022/12/14 11:12:12;;;;;;;87.35;66.13;;;;;;;3.17;100.00;94353.03;5052360;28;20072;-62
2022/12/14 11:14:48;;;;;;;62.00;53.13;;;;;;;3.17;100.00;94351.28;5051954;28;20070;-62
2022/12/14 11:17:40;;;;;;;52.97;47.47;;;;;;;3.11;100.00;94344.81;5052921;28;20490;-63
2022/12/14 11:20:08;;;;;;;52.58;46.92;;;;;;;3.07;100.00;94346.03;5053231;28;20375;-63
2022/12/14 11:22:49;;;;;;;50.22;44.83;;;;;;;3.02;100.00;94345.59;5052599;28;20091;-65
2022/12/14 11:25:28;;;;;;;39.47;35.38;;;;;;;2.99;100.00;94346.66;5056970;28;20624;-62
2022/12/14 11:27:54;;;;;;;41.15;37.03;;;;;;;3.03;100.00;94339.44;5064455;28;20020;-65
2022/12/14 11:30:19;;;;;;;41.97;37.58;;;;;;;3.07;100.00;94337.38;5065359;28;20517;-65
2022/12/14 11:32:48;;;;;;;63.15;51.22;;;;;;;3.07;100.00;94337.38;5051736;28;20406;-65
2022/12/14 11:35:16;;;;;;;54.78;48.92;;;;;;;3.05;100.00;94331.50;5051461;28;20530;-65
2022/12/14 11:37:42;;;;;;;45.55;41.03;;;;;;;3.05;100.00;94327.13;5063469;28;20024;-65
2022/12/14 11:40:26;;;;;;;44.35;39.75;;;;;;;3.10;100.00;94335.34;5071757;28;20398;-64
2022/12/14 11:43:02;;;;;;;41.40;37.55;;;;;;;3.17;100.00;94332.22;5071316;28;20065;-62
2022/12/14 11:45:29;;;;;;;;;;;;;;;3.22;100.00;94323.09;5070731;28;20017;-59
2022/12/14 11:48:17;;;;;;;163.82;112.32;;;;;;;3.27;100.00;94317.50;5070040;28;19912;-57